createdAt,value
2022-10-22T00:01:09.147Z,13.47
2022-10-22T00:03:39.873Z,12.95
2022-10-22T00:06:08.047Z,14.00
2022-10-22T00:08:36.267Z,15.00
2022-10-22T00:11:17.610Z,15.15
2022-10-22T00:16:19.509Z,13.23
2022-10-22T00:18:47.471Z,12.78
2022-10-22T00:21:15.349Z,13.88
2022-10-22T00:23:44.254Z,15.46
2022-10-22T00:26:12.618Z,16.20
2022-10-22T00:28:40.603Z,15.23
2022-10-22T00:31:14.244Z,14.02
2022-10-22T00:33:42.298Z,13.05
2022-10-22T00:36:10.105Z,12.76
2022-10-22T00:38:37.829Z,13.59
2022-10-22T00:41:06.497Z,14.33
2022-10-22T00:43:34.935Z,14.95
2022-10-22T00:46:02.643Z,15.16
2022-10-22T00:48:33.762Z,14.38
2022-10-22T00:51:06.168Z,13.46
2022-10-22T00:53:46.251Z,13.02
2022-10-22T00:56:14.395Z,13.65
2022-10-22T00:58:48.062Z,14.29
2022-10-22T01:01:28.844Z,14.70
2022-10-22T01:03:57.415Z,14.91
2022-10-22T01:06:31.029Z,15.64
2022-10-22T01:09:31.947Z,16.22
2022-10-22T01:12:57.654Z,14.98
2022-10-22T01:15:41.844Z,13.64
2022-10-22T01:18:24.498Z,13.46
2022-10-22T01:21:10.006Z,15.19
2022-10-22T01:24:12.213Z,16.03
2022-10-22T01:27:22.914Z,14.82
2022-10-22T01:30:02.459Z,13.54
2022-10-22T01:32:39.646Z,13.21
2022-10-22T01:35:12.682Z,14.53
2022-10-22T01:37:51.193Z,15.71
2022-10-22T01:40:21.173Z,16.04
2022-10-22T01:43:06.775Z,14.96
2022-10-22T01:45:48.578Z,13.71
2022-10-22T01:48:34.478Z,13.25
2022-10-22T01:51:38.475Z,14.37
2022-10-22T01:54:21.362Z,15.10
2022-10-22T01:57:14.865Z,15.29
2022-10-22T02:00:03.906Z,14.96
2022-10-22T02:05:38.714Z,13.09
2022-10-22T02:08:20.290Z,13.24
2022-10-22T02:10:51.594Z,13.44
2022-10-22T02:13:36.620Z,13.53
2022-10-22T02:16:09.186Z,13.57
2022-10-22T02:18:43.133Z,13.72
2022-10-22T02:21:11.184Z,13.77
2022-10-22T02:23:39.613Z,13.78
2022-10-22T02:26:33.906Z,13.77
2022-10-22T02:29:26.368Z,13.69
2022-10-22T02:31:58.357Z,13.68
2022-10-22T02:34:32.192Z,13.79
2022-10-22T02:37:03.726Z,14.07
2022-10-22T02:39:33.686Z,14.38
2022-10-22T02:42:03.069Z,14.51
2022-10-22T02:44:30.812Z,14.58
2022-10-22T02:46:59.794Z,14.66
2022-10-22T02:49:27.773Z,14.79
2022-10-22T02:51:55.602Z,14.84
2022-10-22T02:54:23.408Z,14.88
2022-10-22T02:56:51.132Z,15.03
2022-10-22T02:59:18.905Z,15.28
2022-10-22T03:01:46.679Z,15.45
2022-10-22T03:04:14.361Z,15.40
2022-10-22T03:06:44.281Z,14.58
2022-10-22T03:09:12.047Z,13.70
2022-10-22T03:11:39.746Z,13.23
2022-10-22T03:14:07.492Z,13.80
2022-10-22T03:16:35.222Z,14.54
2022-10-22T03:19:02.938Z,14.98
2022-10-22T03:21:51.314Z,15.19
2022-10-22T03:24:26.282Z,15.03
2022-10-22T03:26:54.665Z,14.21
2022-10-22T03:29:25.514Z,13.43
2022-10-22T03:31:55.522Z,13.01
2022-10-22T03:34:23.412Z,13.59
2022-10-22T03:36:52.602Z,14.20
2022-10-22T03:39:22.115Z,14.61
2022-10-22T03:41:52.341Z,14.91
2022-10-22T03:44:22.718Z,15.11
2022-10-22T03:46:50.663Z,15.26
2022-10-22T03:49:18.353Z,15.17
2022-10-22T03:51:46.141Z,14.36
2022-10-22T03:54:16.588Z,13.43
2022-10-22T03:56:44.563Z,12.77
2022-10-22T03:59:19.180Z,13.01
2022-10-22T04:01:46.970Z,13.35
2022-10-22T04:04:14.831Z,13.54
2022-10-22T04:06:42.556Z,13.65
2022-10-22T04:09:10.404Z,13.70
2022-10-22T04:11:38.324Z,13.78
2022-10-22T04:14:06.211Z,13.90
2022-10-22T04:16:33.965Z,13.99
2022-10-22T04:19:01.796Z,14.21
2022-10-22T04:21:29.509Z,14.73
2022-10-22T04:23:57.381Z,15.04
2022-10-22T04:26:25.750Z,15.09
2022-10-22T04:28:54.085Z,15.02
2022-10-22T04:31:25.159Z,15.20
2022-10-22T04:33:59.487Z,15.31
2022-10-22T04:36:29.343Z,14.44
2022-10-22T04:39:01.340Z,13.36
2022-10-22T04:41:33.080Z,12.73
2022-10-22T04:44:02.154Z,13.40
2022-10-22T04:46:33.777Z,14.52
2022-10-22T04:49:04.143Z,15.31
2022-10-22T04:51:33.205Z,15.15
2022-10-22T04:54:01.005Z,13.97
2022-10-22T04:56:31.538Z,12.79
2022-10-22T04:59:06.087Z,12.13
2022-10-22T05:01:43.104Z,12.57
2022-10-22T05:04:15.588Z,13.11
2022-10-22T05:06:44.831Z,13.44
2022-10-22T05:09:19.884Z,14.11
2022-10-22T05:11:51.338Z,14.89
2022-10-22T05:14:25.412Z,15.21
2022-10-22T05:16:54.022Z,15.05
2022-10-22T05:19:26.898Z,14.08
2022-10-22T05:21:59.569Z,12.96
2022-10-22T05:24:29.979Z,12.37
2022-10-22T05:26:59.971Z,12.92
2022-10-22T05:29:28.333Z,13.89
2022-10-22T05:31:56.279Z,14.67
2022-10-22T05:34:24.041Z,15.12
2022-10-22T05:36:51.789Z,15.09
2022-10-22T05:39:19.709Z,14.04
2022-10-22T05:41:47.482Z,13.02
2022-10-22T05:44:15.323Z,12.48
2022-10-22T05:46:43.651Z,13.05
2022-10-22T05:49:15.582Z,14.12
2022-10-22T05:51:43.355Z,14.84
2022-10-22T05:54:22.524Z,15.15
2022-10-22T05:56:50.268Z,15.01
2022-10-22T05:59:18.477Z,14.00
2022-10-22T06:01:46.273Z,12.96
2022-10-22T06:04:14.250Z,12.50
2022-10-22T06:06:51.507Z,13.51
2022-10-22T06:09:31.722Z,14.62
2022-10-22T06:12:00.169Z,15.06
2022-10-22T06:14:29.250Z,15.29
2022-10-22T06:17:00.426Z,15.60
2022-10-22T06:19:29.950Z,15.88
2022-10-22T06:21:57.700Z,15.08
2022-10-22T06:24:25.493Z,14.10
2022-10-22T06:26:53.472Z,13.27
2022-10-22T06:29:22.054Z,12.89
2022-10-22T06:31:49.918Z,13.66
2022-10-22T06:34:21.259Z,14.52
2022-10-22T06:36:49.049Z,15.09
2022-10-22T06:39:18.436Z,15.49
2022-10-22T06:41:47.154Z,15.64
2022-10-22T06:44:17.625Z,14.87
2022-10-22T06:46:45.724Z,13.97
2022-10-22T06:49:15.851Z,13.51
2022-10-22T06:51:43.757Z,14.10
2022-10-22T06:54:13.730Z,14.80
2022-10-22T06:56:41.850Z,15.24
2022-10-22T06:59:10.092Z,15.49
2022-10-22T07:01:38.290Z,15.60
2022-10-22T07:04:09.146Z,15.69
2022-10-22T07:06:37.939Z,15.59
2022-10-22T07:09:06.027Z,14.81
2022-10-22T07:11:46.348Z,13.97
2022-10-22T07:14:15.429Z,13.47
2022-10-22T07:16:43.359Z,13.80
2022-10-22T07:19:12.433Z,14.17
2022-10-22T07:21:40.346Z,14.52
2022-10-22T07:24:08.654Z,14.85
2022-10-22T07:26:37.096Z,15.16
2022-10-22T07:29:05.873Z,15.40
2022-10-22T07:31:34.020Z,15.67
2022-10-22T07:34:01.950Z,15.91
2022-10-22T07:36:29.893Z,16.05
2022-10-22T07:38:59.750Z,16.14
2022-10-22T07:41:30.032Z,16.25
2022-10-22T07:43:58.421Z,16.25
2022-10-22T07:46:27.100Z,15.48
2022-10-22T07:48:55.501Z,14.61
2022-10-22T07:51:23.571Z,14.09
2022-10-22T07:53:51.313Z,14.55
2022-10-22T07:56:19.055Z,15.16
2022-10-22T07:58:46.751Z,15.64
2022-10-22T08:01:14.801Z,16.12
2022-10-22T08:03:42.628Z,16.56
2022-10-22T08:06:14.937Z,16.83
2022-10-22T08:08:43.744Z,16.87
2022-10-22T08:11:11.985Z,16.16
2022-10-22T08:13:44.837Z,15.30
2022-10-22T08:16:14.477Z,14.72
2022-10-22T08:18:42.766Z,14.78
2022-10-22T08:21:13.022Z,15.04
2022-10-22T08:23:41.073Z,15.34
2022-10-22T08:26:10.529Z,15.79
2022-10-22T08:28:38.292Z,16.17
2022-10-22T08:31:08.545Z,16.44
2022-10-22T08:33:38.999Z,16.65
2022-10-22T08:36:07.795Z,16.63
2022-10-22T08:38:35.747Z,15.93
2022-10-22T08:41:12.406Z,15.16
2022-10-22T08:44:26.417Z,14.70
2022-10-22T08:47:51.499Z,15.17
2022-10-22T08:50:47.157Z,15.67
2022-10-22T08:53:23.167Z,15.92
2022-10-22T08:55:54.149Z,16.08
2022-10-22T08:58:57.300Z,16.17
2022-10-22T09:01:38.695Z,16.24
2022-10-22T09:04:28.189Z,16.41
2022-10-22T09:06:59.881Z,16.46
2022-10-22T09:09:36.101Z,16.53
2022-10-22T09:12:06.119Z,16.65
2022-10-22T09:14:34.075Z,16.72
2022-10-22T09:17:14.283Z,16.80
2022-10-22T09:20:13.829Z,16.89
2022-10-22T09:23:20.836Z,16.90
2022-10-22T09:25:51.510Z,16.80
2022-10-22T09:28:19.837Z,16.86
2022-10-22T09:30:47.728Z,16.94
2022-10-22T09:33:28.677Z,17.02
2022-10-22T09:36:03.709Z,17.11
2022-10-22T09:38:39.561Z,17.16
2022-10-22T09:41:09.485Z,17.12
2022-10-22T09:43:37.326Z,17.13
2022-10-22T09:46:14.734Z,17.10
2022-10-22T09:48:54.021Z,17.01
2022-10-22T09:51:37.887Z,16.95
2022-10-22T09:54:38.729Z,16.84
2022-10-22T09:57:22.357Z,16.66
2022-10-22T09:59:54.245Z,16.60
2022-10-22T10:02:40.279Z,16.56
2022-10-22T10:05:19.693Z,16.47
2022-10-22T10:07:50.358Z,16.49
2022-10-22T10:10:33.338Z,16.57
2022-10-22T10:13:39.050Z,16.64
2022-10-22T10:16:26.136Z,16.74
2022-10-22T10:19:17.608Z,16.98
2022-10-22T10:22:41.998Z,17.12
2022-10-22T10:25:32.226Z,17.02
2022-10-22T10:28:28.615Z,17.20
2022-10-22T10:31:17.153Z,17.52
2022-10-22T10:34:04.889Z,17.66
2022-10-22T10:37:01.602Z,17.90
2022-10-22T10:40:08.004Z,17.81
2022-10-22T10:42:55.742Z,16.73
2022-10-22T10:45:42.960Z,16.20
2022-10-22T10:48:24.087Z,16.72
2022-10-22T10:51:06.553Z,17.23
2022-10-22T10:54:22.237Z,17.87
2022-10-22T10:57:27.062Z,18.51
2022-10-22T11:00:11.967Z,18.59
2022-10-22T11:02:58.053Z,17.45
2022-10-22T11:05:45.885Z,16.95
2022-10-22T11:08:25.661Z,18.19
2022-10-22T11:11:06.650Z,18.71
2022-10-22T11:13:56.547Z,18.52
2022-10-22T11:16:40.766Z,17.41
2022-10-22T11:19:49.676Z,16.70
2022-10-22T11:22:31.924Z,17.12
2022-10-22T11:25:14.319Z,17.47
2022-10-22T11:28:11.363Z,17.59
2022-10-22T11:30:44.885Z,17.52
2022-10-22T11:33:22.113Z,17.50
2022-10-22T11:35:51.471Z,17.42
2022-10-22T11:38:25.943Z,17.45
2022-10-22T11:41:06.006Z,17.52
2022-10-22T11:44:08.686Z,17.55
2022-10-22T11:46:47.491Z,17.59
2022-10-22T11:49:19.472Z,17.59
2022-10-22T11:51:48.104Z,17.47
2022-10-22T11:54:34.072Z,17.47
2022-10-22T11:57:16.869Z,17.47
2022-10-22T11:59:47.608Z,17.26
2022-10-22T12:02:41.255Z,17.16
2022-10-22T12:05:24.701Z,17.14
2022-10-22T12:08:21.783Z,17.21
2022-10-22T12:11:03.985Z,17.23
2022-10-22T12:13:59.293Z,17.28
2022-10-22T12:16:55.112Z,17.38
2022-10-22T12:19:35.034Z,17.40
2022-10-22T12:22:29.812Z,17.53
2022-10-22T12:25:04.908Z,17.52
2022-10-22T12:27:38.848Z,17.62
2022-10-22T12:30:24.193Z,17.63
2022-10-22T12:33:02.571Z,17.61
2022-10-22T12:35:35.885Z,17.46
2022-10-22T12:38:20.499Z,17.30
2022-10-22T12:40:51.281Z,17.19
2022-10-22T12:43:30.926Z,17.25
2022-10-22T12:46:00.112Z,17.28
2022-10-22T12:48:35.780Z,17.12
2022-10-22T12:51:10.187Z,17.03
2022-10-22T12:53:44.797Z,17.09
2022-10-22T12:56:30.362Z,17.29
2022-10-22T12:59:05.106Z,17.23
2022-10-22T13:01:39.185Z,17.17
2022-10-22T13:04:12.755Z,17.36
2022-10-22T13:06:46.990Z,17.48
2022-10-22T13:09:25.165Z,17.47
2022-10-22T13:12:04.955Z,17.41
2022-10-22T13:14:36.146Z,17.36
2022-10-22T13:17:12.314Z,17.31
2022-10-22T13:19:54.041Z,17.30
2022-10-22T13:22:54.686Z,17.27
2022-10-22T13:25:32.371Z,17.20
2022-10-22T13:28:22.051Z,17.27
2022-10-22T13:31:11.793Z,17.28
2022-10-22T13:33:43.925Z,17.34
2022-10-22T13:36:16.368Z,17.42
2022-10-22T13:38:45.256Z,17.65
2022-10-22T13:41:31.073Z,17.78
2022-10-22T13:43:59.686Z,17.92
2022-10-22T13:46:27.670Z,18.06
2022-10-22T13:48:59.053Z,18.34
2022-10-22T13:51:37.696Z,18.81
2022-10-22T13:54:19.913Z,19.08
2022-10-22T13:56:47.711Z,19.17
2022-10-22T13:59:17.342Z,19.19
2022-10-22T14:01:47.783Z,19.08
2022-10-22T14:04:15.741Z,19.08
2022-10-22T14:06:44.028Z,19.11
2022-10-22T14:09:15.997Z,19.11
2022-10-22T14:11:44.972Z,19.05
2022-10-22T14:14:14.478Z,18.77
2022-10-22T14:16:42.271Z,18.57
2022-10-22T14:19:18.014Z,18.36
2022-10-22T14:21:45.821Z,18.47
2022-10-22T14:24:13.726Z,18.66
2022-10-22T14:26:41.865Z,18.61
2022-10-22T14:29:10.628Z,18.49
2022-10-22T14:31:43.211Z,18.46
2022-10-22T14:34:15.652Z,18.39
2022-10-22T14:36:44.250Z,18.39
2022-10-22T14:39:13.732Z,18.33
2022-10-22T14:41:42.685Z,18.27
2022-10-22T14:44:14.583Z,18.28
2022-10-22T14:46:44.676Z,18.29
2022-10-22T14:49:13.037Z,18.36
2022-10-22T14:51:42.208Z,18.38
2022-10-22T14:54:09.953Z,18.41
2022-10-22T14:56:38.144Z,18.51
2022-10-22T14:59:09.323Z,18.57
2022-10-22T15:07:18.262Z,18.34
2022-10-22T15:14:14.790Z,18.30
2022-10-22T15:20:15.649Z,18.98
2022-10-22T15:22:43.673Z,19.18
2022-10-22T15:25:14.265Z,19.34
2022-10-22T15:27:42.066Z,19.35
2022-10-22T15:30:10.205Z,19.27
2022-10-22T15:32:38.104Z,19.06
2022-10-22T15:35:08.292Z,18.83
2022-10-22T15:37:37.994Z,18.75
2022-10-22T15:40:08.738Z,18.78
2022-10-22T15:42:36.586Z,18.71
2022-10-22T15:45:04.810Z,18.52
2022-10-22T15:47:32.565Z,18.51
2022-10-22T15:50:00.642Z,18.42
2022-10-22T15:52:28.669Z,18.42
2022-10-22T15:54:56.433Z,18.45
2022-10-22T15:57:24.188Z,18.42
2022-10-22T15:59:52.365Z,18.22
2022-10-22T16:02:20.284Z,18.11
2022-10-22T16:04:48.241Z,18.07
2022-10-22T16:07:17.317Z,18.06
2022-10-22T16:09:46.674Z,17.98
2022-10-22T16:12:17.174Z,17.89
2022-10-22T16:14:45.504Z,18.06
2022-10-22T16:17:13.281Z,18.27
2022-10-22T16:19:41.400Z,18.30
2022-10-22T16:22:11.621Z,18.39
2022-10-22T16:24:41.102Z,18.41
2022-10-22T16:27:10.303Z,18.47
2022-10-22T16:29:39.820Z,18.44
2022-10-22T16:32:08.301Z,18.46
2022-10-22T16:34:35.996Z,18.43
2022-10-22T16:37:10.410Z,18.46
2022-10-22T16:39:44.962Z,18.42
2022-10-22T16:42:12.760Z,18.37
2022-10-22T16:44:40.680Z,18.42
2022-10-22T16:47:08.509Z,18.33
2022-10-22T16:49:36.313Z,18.31
2022-10-22T16:52:04.390Z,18.28
2022-10-22T16:54:35.067Z,18.26
2022-10-22T16:57:04.026Z,18.25
2022-10-22T16:59:32.047Z,18.25
2022-10-22T17:01:59.927Z,18.30
2022-10-22T17:04:28.090Z,18.40
2022-10-22T17:06:55.827Z,18.42
2022-10-22T17:09:24.443Z,18.45
2022-10-22T17:11:52.824Z,18.45
2022-10-22T17:14:21.356Z,18.48
2022-10-22T17:16:53.722Z,18.48
2022-10-22T17:19:23.813Z,18.49
2022-10-22T17:21:53.654Z,18.32
2022-10-22T17:24:21.460Z,18.12
2022-10-22T17:26:49.167Z,17.87
2022-10-22T17:29:17.041Z,17.72
2022-10-22T17:31:45.282Z,17.63
2022-10-22T17:34:17.217Z,17.62
2022-10-22T17:36:45.068Z,17.59
2022-10-22T17:39:18.828Z,17.53
2022-10-22T17:41:46.567Z,17.61
2022-10-22T17:44:16.036Z,18.23
2022-10-22T17:46:45.395Z,18.43
2022-10-22T17:49:18.868Z,18.17
2022-10-22T17:51:47.555Z,17.97
2022-10-22T17:54:15.383Z,17.76
2022-10-22T17:56:43.620Z,17.57
2022-10-22T17:59:15.995Z,17.41
2022-10-22T18:01:46.049Z,17.30
2022-10-22T18:04:18.548Z,17.17
2022-10-22T18:06:47.599Z,17.08
2022-10-22T18:09:19.267Z,16.98
2022-10-22T18:11:53.270Z,16.89
2022-10-22T18:14:23.056Z,16.91
2022-10-22T18:16:51.703Z,16.97
2022-10-22T18:19:23.386Z,16.98
2022-10-22T18:21:51.080Z,16.96
2022-10-22T18:24:19.175Z,16.93
2022-10-22T18:26:46.986Z,16.94
2022-10-22T18:29:18.642Z,16.90
2022-10-22T18:31:48.070Z,16.89
2022-10-22T18:34:19.121Z,16.86
2022-10-22T18:36:49.487Z,16.77
2022-10-22T18:39:17.780Z,16.76
2022-10-22T18:41:45.643Z,16.76
2022-10-22T18:44:15.608Z,16.73
2022-10-22T18:46:43.683Z,16.72
2022-10-22T18:49:19.037Z,16.89
2022-10-22T18:51:52.777Z,17.11
2022-10-22T18:54:24.420Z,17.26
2022-10-22T18:57:00.621Z,17.39
2022-10-22T18:59:31.285Z,17.46
2022-10-22T19:01:59.870Z,17.50
2022-10-22T19:04:37.262Z,17.50
2022-10-22T19:07:06.294Z,17.45
2022-10-22T19:09:34.212Z,17.48
2022-10-22T19:12:02.380Z,17.60
2022-10-22T19:14:30.473Z,17.70
2022-10-22T19:16:58.245Z,17.86
2022-10-22T19:19:26.539Z,17.98
2022-10-22T19:21:56.770Z,18.04
2022-10-22T19:24:26.154Z,18.09
2022-10-22T19:26:53.946Z,18.10
2022-10-22T19:29:22.197Z,18.07
2022-10-22T19:31:51.281Z,18.10
2022-10-22T19:34:20.962Z,18.14
2022-10-22T19:36:51.897Z,18.16
2022-10-22T19:39:20.422Z,18.16
2022-10-22T19:41:48.520Z,18.13
2022-10-22T19:44:16.617Z,18.21
2022-10-22T19:46:44.946Z,18.28
2022-10-22T19:49:17.609Z,18.24
2022-10-22T19:51:48.658Z,18.26
2022-10-22T19:54:19.529Z,18.29
2022-10-22T19:56:49.185Z,18.36
2022-10-22T19:59:18.089Z,18.43
2022-10-22T20:01:45.887Z,18.42
2022-10-22T20:04:17.376Z,18.41
2022-10-22T20:06:46.194Z,18.39
2022-10-22T20:09:14.173Z,18.38
2022-10-22T20:11:42.000Z,18.39
2022-10-22T20:14:09.877Z,18.42
2022-10-22T20:16:38.474Z,18.43
2022-10-22T20:19:08.787Z,18.53
2022-10-22T20:21:37.518Z,18.68
2022-10-22T20:24:05.412Z,18.82
2022-10-22T20:26:33.213Z,18.99
2022-10-22T20:29:00.940Z,19.04
2022-10-22T20:31:29.761Z,19.13
2022-10-22T20:34:01.408Z,19.13
2022-10-22T20:36:31.623Z,19.08
2022-10-22T20:39:08.873Z,19.07
2022-10-22T20:41:40.595Z,19.10
2022-10-22T20:44:16.430Z,19.14
2022-10-22T20:46:44.928Z,19.14
2022-10-22T20:49:16.467Z,19.10
2022-10-22T20:51:45.009Z,19.06
2022-10-22T20:54:14.842Z,18.99
2022-10-22T20:56:43.617Z,18.94
2022-10-22T20:59:13.186Z,18.99
2022-10-22T21:01:54.200Z,18.95
2022-10-22T21:04:22.319Z,18.91
2022-10-22T21:06:52.315Z,18.98
2022-10-22T21:09:21.209Z,18.99
2022-10-22T21:11:49.200Z,19.01
2022-10-22T21:14:20.211Z,19.05
2022-10-22T21:16:51.253Z,19.00
2022-10-22T21:19:20.359Z,18.95
2022-10-22T21:21:49.088Z,18.99
2022-10-22T21:24:16.923Z,19.00
2022-10-22T21:26:44.854Z,18.99
2022-10-22T21:29:13.659Z,18.93
2022-10-22T21:31:41.501Z,18.81
2022-10-22T21:34:09.500Z,18.76
2022-10-22T21:36:37.332Z,18.75
2022-10-22T21:39:07.192Z,18.75
2022-10-22T21:41:37.659Z,18.67
2022-10-22T21:44:05.588Z,18.64
2022-10-22T21:46:33.858Z,18.56
2022-10-22T21:49:04.384Z,18.51
2022-10-22T21:51:35.942Z,18.48
2022-10-22T21:54:04.742Z,18.40
2022-10-22T21:56:35.336Z,18.34
2022-10-22T21:59:05.585Z,18.31
2022-10-22T22:01:34.126Z,18.21
2022-10-22T22:04:03.313Z,18.06
2022-10-22T22:06:33.419Z,17.99
2022-10-22T22:09:03.919Z,18.02
2022-10-22T22:11:32.132Z,18.09
2022-10-22T22:13:59.981Z,18.10
2022-10-22T22:16:33.321Z,18.09
2022-10-22T22:19:06.457Z,18.15
2022-10-22T22:21:36.542Z,18.17
2022-10-22T22:24:05.786Z,18.20
2022-10-22T22:26:34.637Z,18.18
2022-10-22T22:29:02.544Z,18.10
2022-10-22T22:31:34.281Z,18.09
2022-10-22T22:34:12.877Z,18.10
2022-10-22T22:36:45.930Z,18.18
2022-10-22T22:39:23.909Z,18.22
2022-10-22T22:41:52.306Z,18.24
2022-10-22T22:44:20.695Z,18.23
2022-10-22T22:46:48.429Z,18.30
2022-10-22T22:49:16.231Z,18.31
2022-10-22T22:51:44.415Z,18.29
2022-10-22T22:54:12.515Z,18.39
2022-10-22T22:56:41.114Z,18.40
2022-10-22T22:59:10.579Z,18.43
2022-10-22T23:01:39.597Z,18.47
2022-10-22T23:04:16.504Z,18.50
2022-10-22T23:06:44.321Z,18.45
2022-10-22T23:09:15.631Z,18.51
2022-10-22T23:11:46.114Z,18.54
2022-10-22T23:14:17.646Z,18.56
2022-10-22T23:16:49.758Z,18.58
2022-10-22T23:19:22.071Z,18.60
2022-10-22T23:21:55.615Z,18.54
2022-10-22T23:24:27.665Z,18.52
2022-10-22T23:26:59.809Z,18.51
2022-10-22T23:29:38.435Z,18.57
2022-10-22T23:32:11.932Z,18.59
2022-10-22T23:34:40.171Z,18.50
2022-10-22T23:37:09.706Z,18.39
2022-10-22T23:39:37.527Z,18.33
2022-10-22T23:42:05.392Z,18.28
2022-10-22T23:44:33.183Z,18.20
2022-10-22T23:47:01.042Z,18.25
2022-10-22T23:49:28.803Z,18.26
2022-10-22T23:51:56.454Z,18.28
2022-10-22T23:54:24.272Z,18.27
2022-10-22T23:56:51.984Z,18.20
2022-10-22T23:59:19.794Z,18.07
